sensor_id;sensor_type;location;lat;lon;timestamp;P1;durP1;ratioP1;P2;durP2;ratioP2
10281;SDS011;5186;59.472;18.048;2023-07-08T00:00:28;1.80;;;1.57;;
10281;SDS011;5186;59.472;18.048;2023-07-08T00:02:54;3.23;;;1.40;;
10281;SDS011;5186;59.472;18.048;2023-07-08T00:05:20;1.37;;;1.27;;
10281;SDS011;5186;59.472;18.048;2023-07-08T00:07:47;2.20;;;1.37;;
10281;SDS011;5186;59.472;18.048;2023-07-08T00:10:15;1.63;;;1.30;;
10281;SDS011;5186;59.472;18.048;2023-07-08T00:12:45;2.97;;;1.63;;
10281;SDS011;5186;59.472;18.048;2023-07-08T00:15:13;2.00;;;1.83;;
10281;SDS011;5186;59.472;18.048;2023-07-08T00:17:39;2.30;;;1.50;;
10281;SDS011;5186;59.472;18.048;2023-07-08T00:20:17;1.30;;;1.20;;
10281;SDS011;5186;59.472;18.048;2023-07-08T00:22:45;2.77;;;1.40;;
10281;SDS011;5186;59.472;18.048;2023-07-08T00:25:17;1.90;;;1.53;;
10281;SDS011;5186;59.472;18.048;2023-07-08T00:27:46;2.93;;;1.50;;
10281;SDS011;5186;59.472;18.048;2023-07-08T00:30:19;3.17;;;2.00;;
10281;SDS011;5186;59.472;18.048;2023-07-08T00:32:49;2.03;;;1.67;;
10281;SDS011;5186;59.472;18.048;2023-07-08T00:35:38;1.60;;;1.50;;
10281;SDS011;5186;59.472;18.048;2023-07-08T00:40:52;2.97;;;1.60;;
10281;SDS011;5186;59.472;18.048;2023-07-08T00:43:30;1.67;;;1.40;;
10281;SDS011;5186;59.472;18.048;2023-07-08T00:46:11;4.53;;;1.50;;
10281;SDS011;5186;59.472;18.048;2023-07-08T00:48:48;2.50;;;1.40;;
10281;SDS011;5186;59.472;18.048;2023-07-08T00:51:16;1.83;;;1.33;;
10281;SDS011;5186;59.472;18.048;2023-07-08T00:53:42;1.57;;;1.40;;
10281;SDS011;5186;59.472;18.048;2023-07-08T00:56:09;2.83;;;1.73;;
10281;SDS011;5186;59.472;18.048;2023-07-08T00:58:49;2.40;;;1.80;;
10281;SDS011;5186;59.472;18.048;2023-07-08T01:01:19;2.77;;;1.40;;
10281;SDS011;5186;59.472;18.048;2023-07-08T01:03:48;2.53;;;1.60;;
10281;SDS011;5186;59.472;18.048;2023-07-08T01:06:26;1.50;;;1.40;;
10281;SDS011;5186;59.472;18.048;2023-07-08T01:09:02;1.80;;;1.63;;
10281;SDS011;5186;59.472;18.048;2023-07-08T01:11:30;2.27;;;1.50;;
10281;SDS011;5186;59.472;18.048;2023-07-08T01:13:57;3.07;;;1.43;;
10281;SDS011;5186;59.472;18.048;2023-07-08T01:16:26;2.60;;;1.77;;
10281;SDS011;5186;59.472;18.048;2023-07-08T01:18:52;2.13;;;1.70;;
10281;SDS011;5186;59.472;18.048;2023-07-08T01:23:58;5.20;;;1.70;;
10281;SDS011;5186;59.472;18.048;2023-07-08T01:26:26;2.53;;;1.60;;
10281;SDS011;5186;59.472;18.048;2023-07-08T01:28:53;4.17;;;1.60;;
10281;SDS011;5186;59.472;18.048;2023-07-08T01:31:20;2.50;;;1.60;;
10281;SDS011;5186;59.472;18.048;2023-07-08T01:33:46;2.53;;;1.80;;
10281;SDS011;5186;59.472;18.048;2023-07-08T01:36:12;2.80;;;1.70;;
10281;SDS011;5186;59.472;18.048;2023-07-08T01:38:38;2.03;;;1.33;;
10281;SDS011;5186;59.472;18.048;2023-07-08T01:41:05;2.67;;;1.83;;
10281;SDS011;5186;59.472;18.048;2023-07-08T01:43:35;2.93;;;2.07;;
10281;SDS011;5186;59.472;18.048;2023-07-08T01:46:01;3.13;;;1.87;;
10281;SDS011;5186;59.472;18.048;2023-07-08T01:48:27;3.27;;;2.10;;
10281;SDS011;5186;59.472;18.048;2023-07-08T01:51:05;2.37;;;1.90;;
10281;SDS011;5186;59.472;18.048;2023-07-08T01:53:33;2.07;;;1.70;;
10281;SDS011;5186;59.472;18.048;2023-07-08T01:56:01;2.37;;;1.83;;
10281;SDS011;5186;59.472;18.048;2023-07-08T01:58:27;3.03;;;1.70;;
10281;SDS011;5186;59.472;18.048;2023-07-08T02:00:53;2.70;;;2.07;;
10281;SDS011;5186;59.472;18.048;2023-07-08T02:03:19;2.60;;;1.97;;
10281;SDS011;5186;59.472;18.048;2023-07-08T02:05:45;2.57;;;1.80;;
10281;SDS011;5186;59.472;18.048;2023-07-08T02:08:11;3.30;;;2.10;;
10281;SDS011;5186;59.472;18.048;2023-07-08T02:10:38;3.10;;;1.97;;
10281;SDS011;5186;59.472;18.048;2023-07-08T02:13:04;2.57;;;1.90;;
10281;SDS011;5186;59.472;18.048;2023-07-08T02:15:31;2.10;;;1.90;;
10281;SDS011;5186;59.472;18.048;2023-07-08T02:17:57;3.40;;;2.07;;
10281;SDS011;5186;59.472;18.048;2023-07-08T02:20:22;3.13;;;2.10;;
10281;SDS011;5186;59.472;18.048;2023-07-08T02:22:48;2.73;;;2.10;;
10281;SDS011;5186;59.472;18.048;2023-07-08T02:25:14;2.87;;;2.00;;
10281;SDS011;5186;59.472;18.048;2023-07-08T02:27:40;2.80;;;1.90;;
10281;SDS011;5186;59.472;18.048;2023-07-08T02:30:07;4.00;;;2.73;;
10281;SDS011;5186;59.472;18.048;2023-07-08T02:32:34;2.43;;;2.10;;
10281;SDS011;5186;59.472;18.048;2023-07-08T02:35:00;2.83;;;2.13;;
10281;SDS011;5186;59.472;18.048;2023-07-08T02:37:28;3.00;;;2.10;;
10281;SDS011;5186;59.472;18.048;2023-07-08T02:39:54;5.10;;;2.10;;
10281;SDS011;5186;59.472;18.048;2023-07-08T02:42:19;3.97;;;2.00;;
10281;SDS011;5186;59.472;18.048;2023-07-08T02:44:45;2.13;;;1.93;;
10281;SDS011;5186;59.472;18.048;2023-07-08T02:47:10;2.40;;;2.20;;
10281;SDS011;5186;59.472;18.048;2023-07-08T02:49:36;3.03;;;2.00;;
10281;SDS011;5186;59.472;18.048;2023-07-08T02:52:02;5.10;;;2.00;;
10281;SDS011;5186;59.472;18.048;2023-07-08T02:54:27;3.80;;;2.33;;
10281;SDS011;5186;59.472;18.048;2023-07-08T02:56:53;3.67;;;2.53;;
10281;SDS011;5186;59.472;18.048;2023-07-08T02:59:19;3.70;;;3.03;;
10281;SDS011;5186;59.472;18.048;2023-07-08T03:01:44;3.50;;;2.83;;
10281;SDS011;5186;59.472;18.048;2023-07-08T03:04:11;7.90;;;2.97;;
10281;SDS011;5186;59.472;18.048;2023-07-08T03:06:44;4.63;;;2.87;;
10281;SDS011;5186;59.472;18.048;2023-07-08T03:09:10;3.33;;;2.83;;
10281;SDS011;5186;59.472;18.048;2023-07-08T03:11:37;4.53;;;2.73;;
10281;SDS011;5186;59.472;18.048;2023-07-08T03:14:03;3.80;;;3.03;;
10281;SDS011;5186;59.472;18.048;2023-07-08T03:16:29;3.10;;;2.80;;
10281;SDS011;5186;59.472;18.048;2023-07-08T03:18:55;6.53;;;3.27;;
10281;SDS011;5186;59.472;18.048;2023-07-08T03:21:21;3.67;;;2.90;;
10281;SDS011;5186;59.472;18.048;2023-07-08T03:23:48;5.57;;;2.80;;
10281;SDS011;5186;59.472;18.048;2023-07-08T03:26:15;3.27;;;2.70;;
10281;SDS011;5186;59.472;18.048;2023-07-08T03:28:44;4.93;;;3.17;;
10281;SDS011;5186;59.472;18.048;2023-07-08T03:31:10;2.60;;;2.40;;
10281;SDS011;5186;59.472;18.048;2023-07-08T03:33:36;3.20;;;2.90;;
10281;SDS011;5186;59.472;18.048;2023-07-08T03:36:02;3.90;;;2.50;;
10281;SDS011;5186;59.472;18.048;2023-07-08T03:38:37;4.00;;;3.37;;
10281;SDS011;5186;59.472;18.048;2023-07-08T03:41:03;3.93;;;3.53;;
10281;SDS011;5186;59.472;18.048;2023-07-08T03:43:29;5.63;;;3.47;;
10281;SDS011;5186;59.472;18.048;2023-07-08T03:45:55;4.53;;;3.70;;
10281;SDS011;5186;59.472;18.048;2023-07-08T03:48:21;7.97;;;3.90;;
10281;SDS011;5186;59.472;18.048;2023-07-08T03:50:46;4.30;;;3.90;;
10281;SDS011;5186;59.472;18.048;2023-07-08T03:53:12;5.10;;;3.90;;
10281;SDS011;5186;59.472;18.048;2023-07-08T03:55:38;4.63;;;4.03;;
10281;SDS011;5186;59.472;18.048;2023-07-08T03:58:03;6.87;;;4.00;;
10281;SDS011;5186;59.472;18.048;2023-07-08T04:00:29;5.07;;;3.80;;
10281;SDS011;5186;59.472;18.048;2023-07-08T04:02:54;4.10;;;3.70;;
10281;SDS011;5186;59.472;18.048;2023-07-08T04:05:22;4.53;;;4.00;;
10281;SDS011;5186;59.472;18.048;2023-07-08T04:07:48;6.37;;;3.73;;
10281;SDS011;5186;59.472;18.048;2023-07-08T04:10:14;4.50;;;3.40;;
10281;SDS011;5186;59.472;18.048;2023-07-08T04:12:41;4.10;;;3.70;;
10281;SDS011;5186;59.472;18.048;2023-07-08T04:15:08;3.87;;;3.47;;
10281;SDS011;5186;59.472;18.048;2023-07-08T04:17:38;3.60;;;3.30;;
10281;SDS011;5186;59.472;18.048;2023-07-08T04:20:10;6.83;;;3.40;;
10281;SDS011;5186;59.472;18.048;2023-07-08T04:22:40;5.43;;;3.73;;
10281;SDS011;5186;59.472;18.048;2023-07-08T04:25:06;3.97;;;3.53;;
10281;SDS011;5186;59.472;18.048;2023-07-08T04:27:32;3.73;;;2.97;;
10281;SDS011;5186;59.472;18.048;2023-07-08T04:29:58;4.10;;;3.70;;
10281;SDS011;5186;59.472;18.048;2023-07-08T04:32:23;3.83;;;3.53;;
10281;SDS011;5186;59.472;18.048;2023-07-08T04:34:52;4.27;;;3.87;;
10281;SDS011;5186;59.472;18.048;2023-07-08T04:37:18;3.97;;;3.57;;
10281;SDS011;5186;59.472;18.048;2023-07-08T04:39:46;5.47;;;3.77;;
10281;SDS011;5186;59.472;18.048;2023-07-08T04:42:13;6.07;;;4.17;;
10281;SDS011;5186;59.472;18.048;2023-07-08T04:44:40;4.03;;;3.50;;
10281;SDS011;5186;59.472;18.048;2023-07-08T04:47:06;5.27;;;3.77;;
10281;SDS011;5186;59.472;18.048;2023-07-08T04:49:34;4.43;;;3.60;;
10281;SDS011;5186;59.472;18.048;2023-07-08T04:51:59;5.63;;;3.80;;
10281;SDS011;5186;59.472;18.048;2023-07-08T04:54:26;4.00;;;3.47;;
10281;SDS011;5186;59.472;18.048;2023-07-08T04:56:55;3.93;;;3.53;;
10281;SDS011;5186;59.472;18.048;2023-07-08T04:59:22;5.27;;;4.50;;
10281;SDS011;5186;59.472;18.048;2023-07-08T05:01:49;4.97;;;3.90;;
10281;SDS011;5186;59.472;18.048;2023-07-08T05:04:17;4.10;;;3.70;;
10281;SDS011;5186;59.472;18.048;2023-07-08T05:06:44;4.57;;;3.50;;
10281;SDS011;5186;59.472;18.048;2023-07-08T05:09:10;4.77;;;3.43;;
10281;SDS011;5186;59.472;18.048;2023-07-08T05:11:36;3.37;;;3.07;;
10281;SDS011;5186;59.472;18.048;2023-07-08T05:14:02;4.33;;;3.40;;
10281;SDS011;5186;59.472;18.048;2023-07-08T05:16:28;3.83;;;3.50;;
10281;SDS011;5186;59.472;18.048;2023-07-08T05:18:54;3.97;;;3.57;;
10281;SDS011;5186;59.472;18.048;2023-07-08T05:21:20;4.63;;;3.70;;
10281;SDS011;5186;59.472;18.048;2023-07-08T05:23:46;4.00;;;3.60;;
10281;SDS011;5186;59.472;18.048;2023-07-08T05:26:14;3.93;;;3.43;;
10281;SDS011;5186;59.472;18.048;2023-07-08T05:28:41;4.60;;;3.60;;
10281;SDS011;5186;59.472;18.048;2023-07-08T05:31:06;5.00;;;3.77;;
10281;SDS011;5186;59.472;18.048;2023-07-08T05:33:33;5.60;;;4.27;;
10281;SDS011;5186;59.472;18.048;2023-07-08T05:35:59;7.20;;;4.57;;
10281;SDS011;5186;59.472;18.048;2023-07-08T05:38:25;5.53;;;4.10;;
10281;SDS011;5186;59.472;18.048;2023-07-08T05:40:54;4.63;;;4.17;;
10281;SDS011;5186;59.472;18.048;2023-07-08T05:43:20;6.73;;;4.60;;
10281;SDS011;5186;59.472;18.048;2023-07-08T05:45:46;5.83;;;4.73;;
10281;SDS011;5186;59.472;18.048;2023-07-08T05:48:12;5.30;;;4.30;;
10281;SDS011;5186;59.472;18.048;2023-07-08T05:50:38;5.07;;;4.10;;
10281;SDS011;5186;59.472;18.048;2023-07-08T05:53:05;5.00;;;4.00;;
10281;SDS011;5186;59.472;18.048;2023-07-08T05:55:31;4.23;;;3.70;;
10281;SDS011;5186;59.472;18.048;2023-07-08T05:57:57;4.33;;;3.90;;
10281;SDS011;5186;59.472;18.048;2023-07-08T06:00:23;5.10;;;4.00;;
10281;SDS011;5186;59.472;18.048;2023-07-08T06:02:48;5.37;;;3.90;;
10281;SDS011;5186;59.472;18.048;2023-07-08T06:05:14;4.93;;;3.60;;
10281;SDS011;5186;59.472;18.048;2023-07-08T06:07:40;6.07;;;4.00;;
10281;SDS011;5186;59.472;18.048;2023-07-08T06:10:06;5.33;;;3.90;;
10281;SDS011;5186;59.472;18.048;2023-07-08T06:12:32;4.77;;;3.70;;
10281;SDS011;5186;59.472;18.048;2023-07-08T06:14:57;4.83;;;4.10;;
10281;SDS011;5186;59.472;18.048;2023-07-08T06:17:23;5.47;;;4.23;;
10281;SDS011;5186;59.472;18.048;2023-07-08T06:19:48;4.70;;;3.80;;
10281;SDS011;5186;59.472;18.048;2023-07-08T06:22:14;4.03;;;3.63;;
10281;SDS011;5186;59.472;18.048;2023-07-08T06:24:40;6.03;;;3.80;;
10281;SDS011;5186;59.472;18.048;2023-07-08T06:27:05;4.53;;;3.87;;
10281;SDS011;5186;59.472;18.048;2023-07-08T06:29:32;5.77;;;3.70;;
10281;SDS011;5186;59.472;18.048;2023-07-08T06:31:59;4.10;;;3.70;;
10281;SDS011;5186;59.472;18.048;2023-07-08T06:34:24;7.10;;;3.63;;
10281;SDS011;5186;59.472;18.048;2023-07-08T06:36:50;7.40;;;3.90;;
10281;SDS011;5186;59.472;18.048;2023-07-08T06:39:16;5.33;;;3.80;;
10281;SDS011;5186;59.472;18.048;2023-07-08T06:41:42;6.53;;;3.23;;
10281;SDS011;5186;59.472;18.048;2023-07-08T06:44:08;5.00;;;3.40;;
10281;SDS011;5186;59.472;18.048;2023-07-08T06:46:33;4.43;;;3.37;;
10281;SDS011;5186;59.472;18.048;2023-07-08T06:48:59;5.53;;;3.60;;
10281;SDS011;5186;59.472;18.048;2023-07-08T06:51:25;4.50;;;3.60;;
10281;SDS011;5186;59.472;18.048;2023-07-08T06:53:51;5.27;;;3.63;;
10281;SDS011;5186;59.472;18.048;2023-07-08T06:56:17;4.50;;;3.90;;
10281;SDS011;5186;59.472;18.048;2023-07-08T06:58:43;4.13;;;3.57;;
10281;SDS011;5186;59.472;18.048;2023-07-08T07:01:08;4.00;;;3.40;;
10281;SDS011;5186;59.472;18.048;2023-07-08T07:03:34;4.13;;;3.60;;
10281;SDS011;5186;59.472;18.048;2023-07-08T07:06:00;4.83;;;3.90;;
10281;SDS011;5186;59.472;18.048;2023-07-08T07:08:25;5.13;;;3.70;;
10281;SDS011;5186;59.472;18.048;2023-07-08T07:10:51;4.00;;;3.63;;
10281;SDS011;5186;59.472;18.048;2023-07-08T07:13:16;5.50;;;3.77;;
10281;SDS011;5186;59.472;18.048;2023-07-08T07:15:42;6.40;;;4.00;;
10281;SDS011;5186;59.472;18.048;2023-07-08T07:18:07;4.07;;;3.67;;
10281;SDS011;5186;59.472;18.048;2023-07-08T07:20:35;4.53;;;3.67;;
10281;SDS011;5186;59.472;18.048;2023-07-08T07:23:01;4.47;;;4.07;;
10281;SDS011;5186;59.472;18.048;2023-07-08T07:25:27;7.10;;;4.07;;
10281;SDS011;5186;59.472;18.048;2023-07-08T07:27:53;4.63;;;3.80;;
10281;SDS011;5186;59.472;18.048;2023-07-08T07:30:18;3.60;;;3.30;;
10281;SDS011;5186;59.472;18.048;2023-07-08T07:32:44;4.00;;;3.60;;
10281;SDS011;5186;59.472;18.048;2023-07-08T07:35:10;4.20;;;3.80;;
10281;SDS011;5186;59.472;18.048;2023-07-08T07:37:38;4.70;;;4.17;;
10281;SDS011;5186;59.472;18.048;2023-07-08T07:40:04;4.93;;;4.00;;
10281;SDS011;5186;59.472;18.048;2023-07-08T07:42:31;4.07;;;3.67;;
10281;SDS011;5186;59.472;18.048;2023-07-08T07:44:57;7.60;;;3.97;;
10281;SDS011;5186;59.472;18.048;2023-07-08T07:47:22;6.53;;;3.80;;
10281;SDS011;5186;59.472;18.048;2023-07-08T07:49:48;5.13;;;4.10;;
10281;SDS011;5186;59.472;18.048;2023-07-08T07:52:14;4.43;;;3.77;;
10281;SDS011;5186;59.472;18.048;2023-07-08T07:54:41;4.83;;;3.70;;
10281;SDS011;5186;59.472;18.048;2023-07-08T07:57:06;4.37;;;3.67;;
10281;SDS011;5186;59.472;18.048;2023-07-08T07:59:32;4.57;;;4.17;;
10281;SDS011;5186;59.472;18.048;2023-07-08T08:01:57;5.53;;;3.43;;
10281;SDS011;5186;59.472;18.048;2023-07-08T08:04:23;5.47;;;3.87;;
10281;SDS011;5186;59.472;18.048;2023-07-08T08:06:48;5.53;;;4.10;;
10281;SDS011;5186;59.472;18.048;2023-07-08T08:09:14;4.47;;;3.80;;
10281;SDS011;5186;59.472;18.048;2023-07-08T08:11:40;5.20;;;3.57;;
10281;SDS011;5186;59.472;18.048;2023-07-08T08:14:05;4.00;;;3.70;;
10281;SDS011;5186;59.472;18.048;2023-07-08T08:16:31;3.97;;;3.67;;
10281;SDS011;5186;59.472;18.048;2023-07-08T08:18:56;4.87;;;4.00;;
10281;SDS011;5186;59.472;18.048;2023-07-08T08:21:22;4.70;;;3.87;;
10281;SDS011;5186;59.472;18.048;2023-07-08T08:23:48;4.83;;;3.97;;
10281;SDS011;5186;59.472;18.048;2023-07-08T08:26:14;4.40;;;2.97;;
10281;SDS011;5186;59.472;18.048;2023-07-08T08:28:40;3.97;;;3.47;;
10281;SDS011;5186;59.472;18.048;2023-07-08T08:31:05;3.60;;;3.30;;
10281;SDS011;5186;59.472;18.048;2023-07-08T08:33:31;5.47;;;3.90;;
10281;SDS011;5186;59.472;18.048;2023-07-08T08:35:56;5.00;;;3.77;;
10281;SDS011;5186;59.472;18.048;2023-07-08T08:38:22;3.33;;;3.03;;
10281;SDS011;5186;59.472;18.048;2023-07-08T08:40:48;3.80;;;3.50;;
10281;SDS011;5186;59.472;18.048;2023-07-08T08:43:14;4.93;;;3.40;;
10281;SDS011;5186;59.472;18.048;2023-07-08T08:45:53;4.23;;;3.77;;
10281;SDS011;5186;59.472;18.048;2023-07-08T08:48:30;4.07;;;3.60;;
10281;SDS011;5186;59.472;18.048;2023-07-08T08:51:00;4.93;;;3.80;;
10281;SDS011;5186;59.472;18.048;2023-07-08T08:53:31;3.80;;;3.50;;
10281;SDS011;5186;59.472;18.048;2023-07-08T08:55:59;3.90;;;3.60;;
10281;SDS011;5186;59.472;18.048;2023-07-08T08:58:49;4.70;;;3.63;;
10281;SDS011;5186;59.472;18.048;2023-07-08T09:01:27;4.23;;;3.80;;
10281;SDS011;5186;59.472;18.048;2023-07-08T09:04:07;5.90;;;4.07;;
10281;SDS011;5186;59.472;18.048;2023-07-08T09:06:37;7.50;;;4.03;;
10281;SDS011;5186;59.472;18.048;2023-07-08T09:09:12;6.87;;;4.00;;
10281;SDS011;5186;59.472;18.048;2023-07-08T09:14:15;6.67;;;3.67;;
10281;SDS011;5186;59.472;18.048;2023-07-08T09:17:14;6.23;;;3.70;;
10281;SDS011;5186;59.472;18.048;2023-07-08T09:19:47;3.83;;;3.37;;
10281;SDS011;5186;59.472;18.048;2023-07-08T09:22:32;4.37;;;3.63;;
10281;SDS011;5186;59.472;18.048;2023-07-08T09:28:07;4.83;;;3.90;;
10281;SDS011;5186;59.472;18.048;2023-07-08T09:30:33;4.23;;;3.53;;
10281;SDS011;5186;59.472;18.048;2023-07-08T09:33:02;5.90;;;3.30;;
10281;SDS011;5186;59.472;18.048;2023-07-08T09:35:37;4.73;;;3.63;;
10281;SDS011;5186;59.472;18.048;2023-07-08T09:38:08;4.93;;;3.87;;
10281;SDS011;5186;59.472;18.048;2023-07-08T09:40:38;3.50;;;3.20;;
10281;SDS011;5186;59.472;18.048;2023-07-08T09:45:50;6.83;;;3.40;;
10281;SDS011;5186;59.472;18.048;2023-07-08T09:48:26;4.23;;;3.30;;
10281;SDS011;5186;59.472;18.048;2023-07-08T09:50:59;3.40;;;3.10;;
10281;SDS011;5186;59.472;18.048;2023-07-08T09:53:25;3.80;;;3.20;;
10281;SDS011;5186;59.472;18.048;2023-07-08T09:55:54;3.77;;;3.23;;
10281;SDS011;5186;59.472;18.048;2023-07-08T09:58:24;5.10;;;3.70;;
10281;SDS011;5186;59.472;18.048;2023-07-08T10:00:55;3.53;;;3.20;;
10281;SDS011;5186;59.472;18.048;2023-07-08T10:03:27;3.30;;;2.93;;
10281;SDS011;5186;59.472;18.048;2023-07-08T10:05:56;4.00;;;3.13;;
10281;SDS011;5186;59.472;18.048;2023-07-08T10:08:27;3.70;;;2.77;;
10281;SDS011;5186;59.472;18.048;2023-07-08T10:11:04;3.73;;;3.03;;
10281;SDS011;5186;59.472;18.048;2023-07-08T10:13:38;4.73;;;3.33;;
10281;SDS011;5186;59.472;18.048;2023-07-08T10:18:47;3.93;;;3.17;;
10281;SDS011;5186;59.472;18.048;2023-07-08T10:21:15;4.67;;;3.27;;
10281;SDS011;5186;59.472;18.048;2023-07-08T10:23:54;4.00;;;3.53;;
10281;SDS011;5186;59.472;18.048;2023-07-08T10:26:33;3.33;;;3.03;;
10281;SDS011;5186;59.472;18.048;2023-07-08T10:29:05;5.20;;;3.60;;
10281;SDS011;5186;59.472;18.048;2023-07-08T10:31:58;3.53;;;3.20;;
10281;SDS011;5186;59.472;18.048;2023-07-08T10:34:58;3.97;;;3.33;;
10281;SDS011;5186;59.472;18.048;2023-07-08T10:40:45;3.40;;;3.10;;
10281;SDS011;5186;59.472;18.048;2023-07-08T10:46:17;4.73;;;3.47;;
10281;SDS011;5186;59.472;18.048;2023-07-08T10:49:05;3.90;;;3.07;;
10281;SDS011;5186;59.472;18.048;2023-07-08T10:54:25;5.63;;;3.63;;
10281;SDS011;5186;59.472;18.048;2023-07-08T11:00:16;6.70;;;3.50;;
10281;SDS011;5186;59.472;18.048;2023-07-08T11:06:08;3.47;;;3.17;;
10281;SDS011;5186;59.472;18.048;2023-07-08T11:08:39;4.90;;;3.60;;
10281;SDS011;5186;59.472;18.048;2023-07-08T11:19:55;3.40;;;3.00;;
10281;SDS011;5186;59.472;18.048;2023-07-08T11:22:27;4.20;;;3.20;;
10281;SDS011;5186;59.472;18.048;2023-07-08T11:24:56;3.90;;;3.47;;
10281;SDS011;5186;59.472;18.048;2023-07-08T11:27:28;3.90;;;3.60;;
10281;SDS011;5186;59.472;18.048;2023-07-08T11:29:59;5.33;;;3.67;;
10281;SDS011;5186;59.472;18.048;2023-07-08T11:32:26;3.77;;;3.37;;
10281;SDS011;5186;59.472;18.048;2023-07-08T11:34:54;5.60;;;3.50;;
10281;SDS011;5186;59.472;18.048;2023-07-08T11:37:22;4.00;;;3.27;;
10281;SDS011;5186;59.472;18.048;2023-07-08T11:39:53;5.23;;;3.53;;
10281;SDS011;5186;59.472;18.048;2023-07-08T11:42:30;4.67;;;3.10;;
10281;SDS011;5186;59.472;18.048;2023-07-08T11:44:58;3.40;;;3.00;;
10281;SDS011;5186;59.472;18.048;2023-07-08T11:47:40;3.37;;;3.07;;
10281;SDS011;5186;59.472;18.048;2023-07-08T11:50:14;4.13;;;3.20;;
10281;SDS011;5186;59.472;18.048;2023-07-08T11:52:51;3.33;;;2.97;;
10281;SDS011;5186;59.472;18.048;2023-07-08T11:55:24;5.10;;;3.30;;
10281;SDS011;5186;59.472;18.048;2023-07-08T11:58:01;4.17;;;3.30;;
10281;SDS011;5186;59.472;18.048;2023-07-08T12:00:32;3.27;;;2.97;;
10281;SDS011;5186;59.472;18.048;2023-07-08T12:03:03;3.83;;;3.20;;
10281;SDS011;5186;59.472;18.048;2023-07-08T12:05:43;3.73;;;3.30;;
10281;SDS011;5186;59.472;18.048;2023-07-08T12:08:13;3.20;;;2.90;;
10281;SDS011;5186;59.472;18.048;2023-07-08T12:10:41;3.27;;;2.97;;
10281;SDS011;5186;59.472;18.048;2023-07-08T12:13:17;3.17;;;2.97;;
10281;SDS011;5186;59.472;18.048;2023-07-08T12:15:46;4.43;;;3.20;;
10281;SDS011;5186;59.472;18.048;2023-07-08T12:18:16;3.77;;;3.37;;
10281;SDS011;5186;59.472;18.048;2023-07-08T12:20:48;4.10;;;3.20;;
10281;SDS011;5186;59.472;18.048;2023-07-08T12:23:20;3.87;;;3.00;;
10281;SDS011;5186;59.472;18.048;2023-07-08T12:25:47;4.87;;;3.17;;
10281;SDS011;5186;59.472;18.048;2023-07-08T12:28:13;4.53;;;2.90;;
10281;SDS011;5186;59.472;18.048;2023-07-08T12:30:40;3.50;;;3.20;;
10281;SDS011;5186;59.472;18.048;2023-07-08T12:33:11;4.10;;;2.90;;
10281;SDS011;5186;59.472;18.048;2023-07-08T12:35:45;3.87;;;3.47;;
10281;SDS011;5186;59.472;18.048;2023-07-08T12:38:14;3.50;;;3.20;;
10281;SDS011;5186;59.472;18.048;2023-07-08T12:40:42;3.30;;;3.00;;
10281;SDS011;5186;59.472;18.048;2023-07-08T12:43:09;3.87;;;3.00;;
10281;SDS011;5186;59.472;18.048;2023-07-08T12:45:35;4.20;;;2.90;;
10281;SDS011;5186;59.472;18.048;2023-07-08T12:48:01;3.27;;;2.97;;
10281;SDS011;5186;59.472;18.048;2023-07-08T12:50:27;3.43;;;2.80;;
10281;SDS011;5186;59.472;18.048;2023-07-08T12:52:53;3.87;;;3.03;;
10281;SDS011;5186;59.472;18.048;2023-07-08T12:55:18;3.23;;;2.80;;
10281;SDS011;5186;59.472;18.048;2023-07-08T12:57:45;4.37;;;3.00;;
10281;SDS011;5186;59.472;18.048;2023-07-08T13:00:14;3.27;;;2.90;;
10281;SDS011;5186;59.472;18.048;2023-07-08T13:02:45;3.53;;;3.23;;
10281;SDS011;5186;59.472;18.048;2023-07-08T13:05:14;3.50;;;3.20;;
10281;SDS011;5186;59.472;18.048;2023-07-08T13:07:40;5.07;;;2.60;;
10281;SDS011;5186;59.472;18.048;2023-07-08T13:10:13;3.37;;;2.87;;
10281;SDS011;5186;59.472;18.048;2023-07-08T13:12:45;3.47;;;2.90;;
10281;SDS011;5186;59.472;18.048;2023-07-08T13:15:17;3.23;;;2.93;;
10281;SDS011;5186;59.472;18.048;2023-07-08T13:17:49;3.87;;;2.93;;
10281;SDS011;5186;59.472;18.048;2023-07-08T13:20:16;3.70;;;2.97;;
10281;SDS011;5186;59.472;18.048;2023-07-08T13:22:43;3.37;;;3.07;;
10281;SDS011;5186;59.472;18.048;2023-07-08T13:25:20;3.53;;;3.00;;
10281;SDS011;5186;59.472;18.048;2023-07-08T13:27:56;3.73;;;2.63;;
10281;SDS011;5186;59.472;18.048;2023-07-08T13:30:25;3.43;;;2.60;;
10281;SDS011;5186;59.472;18.048;2023-07-08T13:32:53;3.00;;;2.63;;
10281;SDS011;5186;59.472;18.048;2023-07-08T13:35:42;3.53;;;2.77;;
10281;SDS011;5186;59.472;18.048;2023-07-08T13:38:12;2.40;;;2.20;;
10281;SDS011;5186;59.472;18.048;2023-07-08T13:40:44;3.27;;;2.43;;
10281;SDS011;5186;59.472;18.048;2023-07-08T13:43:11;3.33;;;2.20;;
10281;SDS011;5186;59.472;18.048;2023-07-08T13:45:37;5.77;;;2.57;;
10281;SDS011;5186;59.472;18.048;2023-07-08T13:48:14;3.03;;;2.37;;
10281;SDS011;5186;59.472;18.048;2023-07-08T13:50:47;3.27;;;2.43;;
10281;SDS011;5186;59.472;18.048;2023-07-08T13:53:22;3.37;;;2.20;;
10281;SDS011;5186;59.472;18.048;2023-07-08T13:55:57;7.10;;;2.60;;
10281;SDS011;5186;59.472;18.048;2023-07-08T13:58:26;6.60;;;2.20;;
10281;SDS011;5186;59.472;18.048;2023-07-08T14:00:54;4.67;;;2.63;;
10281;SDS011;5186;59.472;18.048;2023-07-08T14:03:20;4.20;;;2.60;;
10281;SDS011;5186;59.472;18.048;2023-07-08T14:05:46;4.60;;;2.70;;
10281;SDS011;5186;59.472;18.048;2023-07-08T14:08:13;4.80;;;2.57;;
10281;SDS011;5186;59.472;18.048;2023-07-08T14:10:40;4.13;;;2.53;;
10281;SDS011;5186;59.472;18.048;2023-07-08T14:13:07;4.20;;;2.87;;
10281;SDS011;5186;59.472;18.048;2023-07-08T14:15:33;4.87;;;2.67;;
10281;SDS011;5186;59.472;18.048;2023-07-08T14:18:01;3.07;;;2.43;;
10281;SDS011;5186;59.472;18.048;2023-07-08T14:20:28;5.47;;;2.47;;
10281;SDS011;5186;59.472;18.048;2023-07-08T14:22:54;7.27;;;2.60;;
10281;SDS011;5186;59.472;18.048;2023-07-08T14:25:20;2.57;;;2.33;;
10281;SDS011;5186;59.472;18.048;2023-07-08T14:27:48;2.60;;;2.40;;
10281;SDS011;5186;59.472;18.048;2023-07-08T14:30:14;2.47;;;2.27;;
10281;SDS011;5186;59.472;18.048;2023-07-08T14:32:40;6.80;;;2.23;;
10281;SDS011;5186;59.472;18.048;2023-07-08T14:35:21;2.30;;;2.10;;
10281;SDS011;5186;59.472;18.048;2023-07-08T14:37:49;3.70;;;2.10;;
10281;SDS011;5186;59.472;18.048;2023-07-08T14:42:40;4.77;;;2.50;;
10281;SDS011;5186;59.472;18.048;2023-07-08T14:45:07;3.50;;;2.10;;
10281;SDS011;5186;59.472;18.048;2023-07-08T14:47:33;8.50;;;2.53;;
10281;SDS011;5186;59.472;18.048;2023-07-08T14:49:58;3.27;;;1.90;;
10281;SDS011;5186;59.472;18.048;2023-07-08T14:52:25;2.90;;;1.87;;
10281;SDS011;5186;59.472;18.048;2023-07-08T14:54:50;3.87;;;1.83;;
10281;SDS011;5186;59.472;18.048;2023-07-08T14:57:16;2.63;;;1.80;;
10281;SDS011;5186;59.472;18.048;2023-07-08T14:59:42;2.47;;;2.20;;
10281;SDS011;5186;59.472;18.048;2023-07-08T15:02:17;4.53;;;2.10;;
10281;SDS011;5186;59.472;18.048;2023-07-08T15:04:45;2.70;;;1.90;;
10281;SDS011;5186;59.472;18.048;2023-07-08T15:07:11;2.13;;;1.80;;
10281;SDS011;5186;59.472;18.048;2023-07-08T15:09:37;2.03;;;1.90;;
10281;SDS011;5186;59.472;18.048;2023-07-08T15:12:03;2.97;;;2.10;;
10281;SDS011;5186;59.472;18.048;2023-07-08T15:14:29;2.77;;;2.10;;
10281;SDS011;5186;59.472;18.048;2023-07-08T15:16:55;1.90;;;1.80;;
10281;SDS011;5186;59.472;18.048;2023-07-08T15:19:21;2.13;;;1.90;;
10281;SDS011;5186;59.472;18.048;2023-07-08T15:21:47;2.10;;;1.90;;
10281;SDS011;5186;59.472;18.048;2023-07-08T15:24:13;2.43;;;1.60;;
10281;SDS011;5186;59.472;18.048;2023-07-08T15:26:39;2.03;;;1.80;;
10281;SDS011;5186;59.472;18.048;2023-07-08T15:29:15;3.43;;;1.77;;
10281;SDS011;5186;59.472;18.048;2023-07-08T15:31:45;2.43;;;1.83;;
10281;SDS011;5186;59.472;18.048;2023-07-08T15:34:15;3.10;;;1.70;;
10281;SDS011;5186;59.472;18.048;2023-07-08T15:36:45;1.90;;;1.80;;
10281;SDS011;5186;59.472;18.048;2023-07-08T15:39:11;2.40;;;1.93;;